ADDS METAR Data INFO
IDs: Format: Raw Decoded Include TAF

Data at: 0643 UTC 23 Feb 2018

KBPK 230553Z AUTO 18006KT 6SM BR OVC002 06/06 A3018 RMK AO2 SLP221 60015 T00610061 10061 20050 400610000 58003
KBPK 230545Z AUTO 17005KT 6SM BR OVC002 06/06 A3017 RMK AO2 T00610061
KBPK 230412Z AUTO 17005KT 7SM -RA OVC004 06/06 A3020 RMK AO2 P0001 T00560056
KBPK 230401Z AUTO 17003KT 8SM -RA OVC006 06/06 A3020 RMK AO2 LTG DSNT SE P0001 T00560056
KBPK 230353Z AUTO 14006KT 7SM -RA OVC003 06/06 A3020 RMK AO2 RAE16B46 SLP230 P0000 T00560056
KBPK 230253Z AUTO 12005KT 8SM -RA OVC006 06/06 A3018 RMK AO2 RAB0159 SLP225 P0007 60014 T00560056 58008
KBPK 230220Z AUTO VRB03KT 5SM -RA BR OVC003 05/05 A3023 RMK AO2 RAB0159 P0004 T00500050
KBPK 230153Z AUTO 00000KT 7SM OVC004 05/05 A3021 RMK AO2 RAE28 SLP234 P0000 T00500050
KBPK 230139Z AUTO 00000KT 8SM OVC004 05/05 A3019 RMK AO2 RAE28 P0000 T00500050
KBPK 230053Z AUTO VRB03KT 10SM -RA BKN007 OVC010 05/05 A3021 RMK AO2 SLP234 P0007 T00500050
KBPK 230030Z AUTO 13006KT 7SM RA OVC005 05/05 A3020 RMK AO2 P0003 T00500050
KBPK 230013Z AUTO 14006KT 9SM -RA OVC004 05/05 A3021 RMK AO2 CIG 002V009 P0001 T00500050
KBPK 222353Z AUTO 13010KT 6SM -RA BR OVC003 04/04 A3020 RMK AO2 SLP232 P0004 60013 T00440044 10050 20039 55019
KBPK 222349Z AUTO 12008KT 5SM RA BR OVC003 04/04 A3019 RMK AO2 P0004
KBPK 222253Z AUTO VRB05KT 4SM RA BR OVC004 04/04 A3020 RMK AO2 SLP231 P0007 T00440044
KBPK 222232Z AUTO 12008KT 9SM -RA BKN004 04/04 A3021 RMK AO2 P0004 T00440044
KBPK 222205Z AUTO 12009KT 4SM RA BR SCT005 BKN060 OVC090 04/04 A3023 RMK AO2 PRESFR P0002 T00440044
KBPK 222153Z AUTO 13009KT 6SM RA BR BKN005 OVC090 04/04 A3026 RMK AO2 RAB33 SLP252 P0002 T00440044
KBPK 222053Z AUTO 17003KT 10SM OVC005 04/04 A3030 RMK AO2 SLP265 T00440044 56010
KBPK 221953Z AUTO 18004KT 10SM OVC005 04/04 A3030 RMK AO2 SLP267 T00440044
KBPK 221753Z AUTO 17006KT 10SM OVC005 04/04 A3033 RMK AO2 SLP275 T00390039 10039 20000 56012
KBPK 221731Z AUTO 19004KT 10SM OVC005 04/04 A3033 RMK AO2 T00390039
KBPK 221653Z AUTO 00000KT 10SM OVC004 03/03 A3033 RMK AO2 SLP278 T00330033
KBPK 221604Z AUTO 09007KT 10SM OVC004 03/03 A3033 RMK AO2 T00280028
KBPK 221553Z AUTO VRB06KT 10SM OVC005 03/03 A3033 RMK AO2 SLP275 T00280028
KBPK 221453Z AUTO 07003KT 10SM OVC005 02/02 A3036 RMK AO2 CIG 004V008 SLP289 T00170017 50006
KBPK 221429Z AUTO 00000KT 10SM OVC004 01/01 A3037 RMK AO2 T00110011
KBPK 221404Z AUTO 00000KT 9SM OVC003 01/01 A3037 RMK AO2 CIG 002V006 T00060006
KBPK 221353Z AUTO 00000KT 8SM OVC004 01/01 A3037 RMK AO2 CIG 002V007 SLP292 T00060006
KBPK 221339Z AUTO 36003KT 10SM OVC004 01/01 A3037 RMK AO2 CIG 002V007 T00060006
KBPK 221253Z AUTO 36004KT 5SM BR OVC002 00/00 A3034 RMK AO2 SLP282 T00000000
KBPK 221222Z AUTO 00000KT 3SM BR OVC003 00/00 A3034 RMK AO2 T00000000
KBPK 221153Z AUTO 00000KT 2 1/2SM BR OVC003 00/00 A3034 RMK AO2 SLP282 60002 70040 T00000000 10006 20000 53009
KBPK 221139Z AUTO 33004KT 2 1/2SM BR OVC002 00/00 A3034 RMK AO2 T00000000
KBPK 221122Z AUTO 00000KT 3SM BR OVC003 00/00 A3034 RMK AO2 T00000000
KBPK 221110Z AUTO 00000KT 3SM BR OVC002 00/00 A3033 RMK AO2 T00000000
KBPK 221053Z AUTO 00000KT 3SM BR OVC003 00/00 A3032 RMK AO2 SLP274 T00000000
KBPK 221045Z AUTO 00000KT 3SM BR OVC003 00/00 A3032 RMK AO2 T00000000
KBPK 220953Z AUTO 00000KT 3SM BR OVC004 00/00 A3032 RMK AO2 SLP273 T00000000
KBPK 220950Z AUTO 00000KT 3SM BR OVC004 00/00 A3032 RMK AO2
KBPK 220940Z AUTO 00000KT 3SM BR OVC003 00/00 A3031 RMK AO2 T00000000
KBPK 220920Z AUTO 00000KT 3SM BR OVC005 00/00 A3031 RMK AO2 T00000000
KBPK 220853Z AUTO 00000KT 2 1/2SM BR OVC004 00/00 A3031 RMK AO2 UPE28 SLP272 P0001 60002 T00000000 51005
KBPK 220850Z AUTO 00000KT 2 1/2SM BR OVC004 00/00 A3031 RMK AO2 UPE28 P0001
KBPK 220832Z AUTO 00000KT 4SM BR OVC004 00/00 A3031 RMK AO2 UPE28 CIG 002V007 P0000 T00000000
KBPK 220824Z AUTO 00000KT 2 1/2SM UP BR OVC004 00/00 A3031 RMK AO2 CIG 002V007 P0000 T00000000
KBPK 220753Z AUTO 35003KT 2 1/2SM UP BR OVC003 00/00 A3030 RMK AO2 UPB03 SLP268 P0001 T00000000
KBPK 220751Z AUTO 00000KT 2 1/2SM UP BR OVC003 00/00 A3030 RMK AO2 UPB03 P0001
KBPK 220740Z AUTO 01003KT 3SM UP BR OVC003 00/00 A3030 RMK AO2 UPB03 P0001 T00000000
KBPK 220653Z AUTO 36003KT 9SM OVC004 00/00 A3031 RMK AO2 SLP270 T00000000
KBPK 220637Z AUTO VRB05KT 10SM OVC004 00/00 A3029 RMK AO2 T00000000
KBPK 220553Z AUTO 33005KT 10SM OVC007 00/00 A3030 RMK AO2 SLP267 60030 T00000000 10006 21006 400391006 56023
KBPK 220453Z AUTO 10SM BKN008 00/00 A3031 RMK AO2 PK WND 14030/0414 UPE33 SLP270 P0001 T00000000
KBPK 220451Z AUTO VRB04KT 10SM BKN008 00/00 A3027 RMK AO2 PK WND 14030/0414 UPE33 P0001
KBPK 220353Z AUTO 15006KT 10SM UP FEW007 SCT019 OVC050 00/00 A3037 RMK AO2 UPE00B21 SLP291 P0001 T00000000
KBPK 220021Z AUTO VRB04KT 5SM FZRA BR OVC007 M01/M01 A3041 RMK AO2 CIG 005V011 P0002 T10061006
KBPK 220004Z AUTO 02007KT 5SM -FZRA BR OVC006 M01/M01 A3040 RMK AO2 CIG 004V009 P0000 T10061006
KBPK 212353Z AUTO 02006KT 4SM FZRA BR OVC006 M01/M01 A3041 RMK AO2 UPE26FZRAB26 CIG 004V010 SLP304 P0007 60008 T10061006 10011 21006 51027
KBPK 212339Z AUTO 02007KT 3SM FZRA BR OVC005 M01/M01 A3040 RMK AO2 UPE26FZRAB26 CIG 004V007 P0005 T10061006
KBPK 212333Z AUTO 01007KT 340V040 1 3/4SM FZRA BR OVC005 M01/M01 A3040 RMK AO2 UPE26FZRAB26 P0004 T10061006
KBPK 212326Z AUTO 02007KT 2SM FZRA BR OVC005 M01/M01 A3039 RMK AO2 UPE26FZRAB26 P0003 T10061006
KBPK 212253Z AUTO 01007KT 2 1/2SM UP BR OVC004 00/00 A3037 RMK AO2 UPB22RAB25E27 SLP293 P0001 T00000000
KBPK 212246Z AUTO VRB05KT 2SM UP BR OVC004 00/00 A3038 RMK AO2 UPB22RAB25E27 PRESRR P0001 T00000000
KBPK 212233Z AUTO 03004KT 1 3/4SM UP BR OVC004 00/00 A3036 RMK AO2 UPB22RAB25E27 P0000 T00000000
KBPK 212203Z AUTO 04005KT 2SM BR OVC005 01/01 A3036 RMK AO2 T00060006
KBPK 212153Z AUTO 05007KT 3SM BR OVC006 01/01 A3036 RMK AO2 SLP288 T00060006
KBPK 212053Z AUTO 06007KT 10SM OVC006 01/01 A3032 RMK AO2 SLP275 60000 T00060006 56036
KBPK 211953Z AUTO 09007KT 10SM OVC006 00/00 A3034 RMK AO2 UPE17RAB17E31 SLP280 P0000 T00000000